createdAt,value
2022-07-26T00:00:51.995Z,23.30
2022-07-26T00:03:19.214Z,23.25
2022-07-26T00:05:46.702Z,23.25
2022-07-26T00:08:13.848Z,23.17
2022-07-26T00:10:49.185Z,23.16
2022-07-26T00:13:19.832Z,23.18
2022-07-26T00:15:49.184Z,23.13
2022-07-26T00:18:17.844Z,23.10
2022-07-26T00:20:46.037Z,23.02
2022-07-26T00:23:14.575Z,22.99
2022-07-26T00:25:42.299Z,23.02
2022-07-26T00:28:09.299Z,22.97
2022-07-26T00:30:36.748Z,22.94
2022-07-26T00:33:03.955Z,22.97
2022-07-26T00:35:31.589Z,22.89
2022-07-26T00:37:59.068Z,22.93
2022-07-26T00:40:26.361Z,22.83
2022-07-26T00:42:53.715Z,22.88
2022-07-26T00:45:20.801Z,22.85
2022-07-26T00:47:47.977Z,22.78
2022-07-26T00:50:19.953Z,22.72
2022-07-26T00:52:50.015Z,22.72
2022-07-26T00:55:18.417Z,22.70
2022-07-26T00:57:46.791Z,22.67
2022-07-26T01:00:19.298Z,22.61
2022-07-26T01:02:46.578Z,22.58
2022-07-26T01:05:14.935Z,22.62
2022-07-26T01:07:43.676Z,22.59
2022-07-26T01:10:12.881Z,22.55
2022-07-26T01:13:00.170Z,22.52
2022-07-26T01:15:27.465Z,22.48
2022-07-26T01:17:54.631Z,22.50
2022-07-26T01:20:22.082Z,22.44
2022-07-26T01:22:49.217Z,22.44
2022-07-26T01:25:16.443Z,22.45
2022-07-26T01:27:44.025Z,22.41
2022-07-26T01:30:12.785Z,22.40
2022-07-26T01:32:40.213Z,22.41
2022-07-26T01:35:08.389Z,22.39
2022-07-26T01:37:35.666Z,22.32
2022-07-26T01:40:04.141Z,22.32
2022-07-26T01:42:31.930Z,22.35
2022-07-26T01:44:58.967Z,22.31
2022-07-26T01:47:26.002Z,22.31
2022-07-26T01:49:53.164Z,22.28
2022-07-26T01:52:20.230Z,22.30
2022-07-26T01:54:47.233Z,22.29
2022-07-26T01:57:14.423Z,22.28
2022-07-26T01:59:41.411Z,22.27
2022-07-26T02:02:08.625Z,22.25
2022-07-26T02:04:58.819Z,22.27
2022-07-26T02:07:38.058Z,22.25
2022-07-26T02:10:08.599Z,22.24
2022-07-26T02:12:39.755Z,22.23
2022-07-26T02:15:09.362Z,22.18
2022-07-26T02:17:40.094Z,22.13
2022-07-26T02:20:08.965Z,22.18
2022-07-26T02:22:36.112Z,22.13
2022-07-26T02:25:05.439Z,22.11
2022-07-26T02:27:34.369Z,22.11
2022-07-26T02:30:02.261Z,22.06
2022-07-26T02:32:29.330Z,22.07
2022-07-26T02:34:56.331Z,22.06
2022-07-26T02:37:23.308Z,22.05
2022-07-26T02:39:50.339Z,22.04
2022-07-26T02:42:36.327Z,22.02
2022-07-26T02:45:03.995Z,21.98
2022-07-26T02:47:52.986Z,22.01
2022-07-26T02:50:22.977Z,21.99
2022-07-26T02:52:51.816Z,21.94
2022-07-26T02:55:24.182Z,21.93
2022-07-26T02:57:52.242Z,21.89
2022-07-26T03:00:25.000Z,21.86
2022-07-26T03:02:53.123Z,21.86
2022-07-26T03:05:21.947Z,21.85
2022-07-26T03:07:49.426Z,21.86
2022-07-26T03:10:16.997Z,21.87
2022-07-26T03:12:44.264Z,21.87
2022-07-26T03:15:11.970Z,21.85
2022-07-26T03:17:39.439Z,21.88
2022-07-26T03:20:07.275Z,21.86
2022-07-26T03:22:34.454Z,21.82
2022-07-26T03:25:01.613Z,21.85
2022-07-26T03:27:28.694Z,21.83
2022-07-26T03:29:55.743Z,21.87
2022-07-26T03:32:22.906Z,21.88
2022-07-26T03:34:50.042Z,21.84
2022-07-26T03:37:17.561Z,21.88
2022-07-26T03:39:45.087Z,21.89
2022-07-26T03:42:12.190Z,21.90
2022-07-26T03:44:39.221Z,21.89
2022-07-26T03:47:06.402Z,21.88
2022-07-26T03:49:33.494Z,21.87
2022-07-26T03:52:00.703Z,21.86
2022-07-26T03:54:27.906Z,21.91
2022-07-26T03:56:55.034Z,21.97
2022-07-26T03:59:24.107Z,21.97
2022-07-26T04:01:51.933Z,21.96
2022-07-26T04:04:19.400Z,21.97
2022-07-26T04:06:52.252Z,22.00
2022-07-26T04:09:20.029Z,21.99
2022-07-26T04:11:48.607Z,21.98
2022-07-26T04:14:16.504Z,22.00
2022-07-26T04:16:44.052Z,21.99
2022-07-26T04:19:11.210Z,21.95
2022-07-26T04:21:38.315Z,21.95
2022-07-26T04:24:05.904Z,21.98
2022-07-26T04:26:33.275Z,22.00
2022-07-26T04:29:00.374Z,22.00
2022-07-26T04:31:27.625Z,22.04
2022-07-26T04:34:01.907Z,22.05
2022-07-26T04:36:28.924Z,22.09
2022-07-26T04:38:55.904Z,22.08
2022-07-26T04:41:23.161Z,22.10
2022-07-26T04:43:50.206Z,22.11
2022-07-26T04:46:18.375Z,22.15
2022-07-26T04:48:45.507Z,22.27
2022-07-26T04:51:12.542Z,22.39
2022-07-26T04:53:39.525Z,22.46
2022-07-26T04:56:06.982Z,22.52
2022-07-26T04:58:34.082Z,22.60
2022-07-26T05:01:10.309Z,22.58
2022-07-26T05:03:39.012Z,22.61
2022-07-26T05:06:06.469Z,22.59
2022-07-26T05:08:33.544Z,22.62
2022-07-26T05:11:00.675Z,22.57
2022-07-26T05:13:30.603Z,22.57
2022-07-26T05:15:59.743Z,22.60
2022-07-26T05:18:29.278Z,22.71
2022-07-26T05:20:58.659Z,22.83
2022-07-26T05:23:25.884Z,23.00
2022-07-26T05:25:52.938Z,23.08
2022-07-26T05:28:20.018Z,23.16
2022-07-26T05:30:47.452Z,23.16
2022-07-26T05:33:16.518Z,23.16
2022-07-26T05:35:43.961Z,23.12
2022-07-26T05:38:11.114Z,23.09
2022-07-26T05:40:40.608Z,23.08
2022-07-26T05:43:07.676Z,23.07
2022-07-26T05:45:34.891Z,23.08
2022-07-26T05:48:02.193Z,23.05
2022-07-26T05:50:33.051Z,23.08
2022-07-26T05:53:00.151Z,22.99
2022-07-26T05:55:27.209Z,22.97
2022-07-26T05:57:54.211Z,22.96
2022-07-26T06:00:21.469Z,22.97
2022-07-26T06:02:48.492Z,23.10
2022-07-26T06:05:15.955Z,23.24
2022-07-26T06:07:43.044Z,23.36
2022-07-26T06:10:10.450Z,23.43
2022-07-26T06:12:37.573Z,23.46
2022-07-26T06:15:15.059Z,23.42
2022-07-26T06:17:43.502Z,23.31
2022-07-26T06:20:11.156Z,23.25
2022-07-26T06:22:38.214Z,23.20
2022-07-26T06:25:06.154Z,23.27
2022-07-26T06:27:33.286Z,23.36
2022-07-26T06:30:00.543Z,23.46
2022-07-26T06:32:27.628Z,23.54
2022-07-26T06:34:54.806Z,23.59
2022-07-26T06:37:21.908Z,23.66
2022-07-26T06:39:48.918Z,23.76
2022-07-26T06:42:15.986Z,23.88
2022-07-26T06:44:43.100Z,24.03
2022-07-26T06:47:10.210Z,24.06
2022-07-26T06:49:37.332Z,24.05
2022-07-26T06:52:04.902Z,24.01
2022-07-26T06:54:32.020Z,24.03
2022-07-26T06:56:59.007Z,24.10
2022-07-26T06:59:26.222Z,24.26
2022-07-26T07:01:59.417Z,24.33
2022-07-26T07:04:29.985Z,24.49
2022-07-26T07:07:03.318Z,24.52
2022-07-26T07:09:33.948Z,24.50
2022-07-26T07:12:09.376Z,24.47
2022-07-26T07:14:38.151Z,24.55
2022-07-26T07:17:11.152Z,24.55
2022-07-26T07:19:40.232Z,24.46
2022-07-26T07:22:11.642Z,24.04
2022-07-26T07:24:39.558Z,24.22
2022-07-26T07:27:07.350Z,24.21
2022-07-26T07:29:34.525Z,24.20
2022-07-26T07:32:03.437Z,24.31
2022-07-26T07:34:30.693Z,24.35
2022-07-26T07:36:57.919Z,24.32
2022-07-26T07:39:27.306Z,24.41
2022-07-26T07:42:02.069Z,24.57
2022-07-26T07:44:29.153Z,24.68
2022-07-26T07:46:56.738Z,24.78
2022-07-26T07:49:24.087Z,24.81
2022-07-26T07:51:51.137Z,24.92
2022-07-26T07:54:18.456Z,24.97
2022-07-26T07:56:45.469Z,25.03
2022-07-26T07:59:13.006Z,24.98
2022-07-26T08:01:41.092Z,24.99
2022-07-26T08:04:09.881Z,24.94
2022-07-26T08:06:37.121Z,24.90
2022-07-26T08:09:05.383Z,24.58
2022-07-26T08:11:34.400Z,24.25
2022-07-26T08:14:02.193Z,23.92
2022-07-26T08:16:29.728Z,23.55
2022-07-26T08:18:58.462Z,23.17
2022-07-26T08:21:29.399Z,22.85
2022-07-26T08:23:58.020Z,22.69
2022-07-26T08:26:25.651Z,22.59
2022-07-26T08:29:09.821Z,22.40
2022-07-26T08:31:37.436Z,22.16
2022-07-26T08:34:04.564Z,22.05
2022-07-26T08:36:32.994Z,21.96
2022-07-26T08:39:02.079Z,21.99
2022-07-26T08:41:30.638Z,22.10
2022-07-26T08:44:09.706Z,22.11
2022-07-26T08:49:08.213Z,22.04
2022-07-26T08:51:43.914Z,22.03
2022-07-26T08:54:15.293Z,21.99
2022-07-26T08:56:51.800Z,21.92
2022-07-26T08:59:22.288Z,21.81
2022-07-26T09:02:00.899Z,21.64
2022-07-26T09:04:43.828Z,21.75
2022-07-26T09:07:19.415Z,21.78
2022-07-26T09:10:00.683Z,21.87
2022-07-26T09:12:30.996Z,21.91
2022-07-26T09:15:00.990Z,21.95
2022-07-26T09:17:46.826Z,21.94
2022-07-26T09:20:29.495Z,22.10
2022-07-26T09:23:10.268Z,22.23
2022-07-26T09:25:44.469Z,22.37
2022-07-26T09:28:29.669Z,22.40
2022-07-26T09:31:02.004Z,22.46
2022-07-26T09:33:49.070Z,22.55
2022-07-26T09:36:18.406Z,22.55
2022-07-26T09:38:50.572Z,22.54
2022-07-26T09:41:27.936Z,22.60
2022-07-26T09:44:03.073Z,22.68
2022-07-26T09:46:32.474Z,22.78
2022-07-26T09:49:21.064Z,22.87
2022-07-26T09:51:51.729Z,22.84
2022-07-26T09:54:33.937Z,22.83
2022-07-26T09:57:02.094Z,22.92
2022-07-26T09:59:30.055Z,22.94
2022-07-26T10:02:00.491Z,23.01
2022-07-26T10:04:28.042Z,23.09
2022-07-26T10:06:58.255Z,23.11
2022-07-26T10:09:32.979Z,23.06
2022-07-26T10:12:09.060Z,23.08
2022-07-26T10:14:51.443Z,23.03
2022-07-26T10:17:35.174Z,22.88
2022-07-26T10:20:09.331Z,22.76
2022-07-26T10:22:47.418Z,22.67
2022-07-26T10:25:17.541Z,22.55
2022-07-26T10:27:51.236Z,22.49
2022-07-26T10:30:18.350Z,22.56
2022-07-26T10:32:52.648Z,22.65
2022-07-26T10:35:39.416Z,22.70
2022-07-26T10:38:14.286Z,22.73
2022-07-26T10:41:01.894Z,22.83
2022-07-26T10:43:45.768Z,22.95
2022-07-26T10:46:19.095Z,23.04
2022-07-26T10:49:01.620Z,22.97
2022-07-26T10:51:36.205Z,22.86
2022-07-26T10:54:15.002Z,22.77
2022-07-26T10:56:42.331Z,22.67
2022-07-26T10:59:09.511Z,22.59
2022-07-26T11:01:43.104Z,22.63
2022-07-26T11:04:23.563Z,22.64
2022-07-26T11:06:50.651Z,22.58
2022-07-26T11:09:21.292Z,22.61
2022-07-26T11:11:49.042Z,22.71
2022-07-26T11:14:18.389Z,22.74
2022-07-26T11:16:48.896Z,22.69
2022-07-26T11:19:23.341Z,22.60
2022-07-26T11:22:00.566Z,22.60
2022-07-26T11:24:29.338Z,22.67
2022-07-26T11:27:02.790Z,22.80
2022-07-26T11:29:39.122Z,22.76
2022-07-26T11:32:25.289Z,22.74
2022-07-26T11:35:05.015Z,22.86
2022-07-26T11:37:39.549Z,22.81
2022-07-26T11:40:07.348Z,22.75
2022-07-26T11:42:34.546Z,22.72
2022-07-26T11:45:01.620Z,22.84
2022-07-26T11:47:28.904Z,22.85
2022-07-26T11:50:17.006Z,22.90
2022-07-26T11:52:45.990Z,22.92
2022-07-26T11:55:13.524Z,22.96
2022-07-26T11:57:40.807Z,22.98
2022-07-26T12:00:08.971Z,22.98
2022-07-26T12:02:36.143Z,23.08
2022-07-26T12:05:33.424Z,23.10
2022-07-26T12:08:04.925Z,23.00
2022-07-26T12:10:32.607Z,23.10
2022-07-26T12:13:15.876Z,23.17
2022-07-26T12:15:50.305Z,23.17
2022-07-26T12:18:35.266Z,23.12
2022-07-26T12:21:09.645Z,22.95
2022-07-26T12:23:49.603Z,22.90
2022-07-26T12:26:27.706Z,22.88
2022-07-26T12:28:57.238Z,22.86
2022-07-26T12:31:34.116Z,22.83
2022-07-26T12:34:01.870Z,22.81
2022-07-26T12:36:30.318Z,22.83
2022-07-26T12:39:00.076Z,23.05
2022-07-26T12:41:40.579Z,23.05
2022-07-26T12:44:12.377Z,23.09
2022-07-26T12:46:40.331Z,23.14
2022-07-26T12:49:07.466Z,23.12
2022-07-26T12:51:34.830Z,23.03
2022-07-26T12:54:03.420Z,23.11
2022-07-26T12:56:30.447Z,23.12
2022-07-26T12:59:01.528Z,23.02
2022-07-26T13:01:31.349Z,22.90
2022-07-26T13:03:58.665Z,23.01
2022-07-26T13:06:25.737Z,23.08
2022-07-26T13:08:53.773Z,23.08
2022-07-26T13:11:21.087Z,23.05
2022-07-26T13:13:49.426Z,23.04
2022-07-26T13:16:16.498Z,22.95
2022-07-26T13:18:43.727Z,22.87
2022-07-26T13:21:11.929Z,22.78
2022-07-26T13:23:39.231Z,22.77
2022-07-26T13:26:09.258Z,22.80
2022-07-26T13:28:37.038Z,22.84
2022-07-26T13:31:04.278Z,22.79
2022-07-26T13:33:33.193Z,22.75
2022-07-26T13:36:00.633Z,22.84
2022-07-26T13:38:28.414Z,22.98
2022-07-26T13:40:56.498Z,23.07
2022-07-26T13:43:24.269Z,23.04
2022-07-26T13:45:51.561Z,22.90
2022-07-26T13:48:18.730Z,22.91
2022-07-26T13:50:45.846Z,22.96
2022-07-26T13:53:13.250Z,22.98
2022-07-26T13:55:40.291Z,23.00
2022-07-26T13:58:10.422Z,23.10
2022-07-26T14:00:40.376Z,23.19
2022-07-26T14:03:08.236Z,23.11
2022-07-26T14:05:35.618Z,23.04
2022-07-26T14:08:03.070Z,22.92
2022-07-26T14:10:30.970Z,22.85
2022-07-26T14:12:58.812Z,22.78
2022-07-26T14:15:26.035Z,22.79
2022-07-26T14:17:53.330Z,22.86
2022-07-26T14:20:21.855Z,22.90
2022-07-26T14:22:53.556Z,22.93
2022-07-26T14:25:25.839Z,22.79
2022-07-26T14:27:54.858Z,22.67
2022-07-26T14:30:22.701Z,22.65
2022-07-26T14:32:50.418Z,22.72
2022-07-26T14:35:17.917Z,22.76
2022-07-26T14:37:46.020Z,22.84
2022-07-26T14:40:17.700Z,22.81
2022-07-26T14:42:45.996Z,22.84
2022-07-26T14:45:14.579Z,22.73
2022-07-26T14:47:42.385Z,22.65
2022-07-26T14:50:15.672Z,22.48
2022-07-26T14:52:48.271Z,22.53
2022-07-26T14:55:21.695Z,22.51
2022-07-26T14:57:52.118Z,22.55
2022-07-26T15:00:19.266Z,22.55
2022-07-26T15:02:48.580Z,22.57
2022-07-26T15:05:17.151Z,22.58
2022-07-26T15:07:45.158Z,22.55
2022-07-26T15:10:14.527Z,22.50
2022-07-26T15:12:42.885Z,22.49
2022-07-26T15:15:11.153Z,22.51
2022-07-26T15:17:38.377Z,22.58
2022-07-26T15:20:06.575Z,22.64
2022-07-26T15:22:33.708Z,22.63
2022-07-26T15:25:00.726Z,22.60
2022-07-26T15:27:27.945Z,22.51
2022-07-26T15:29:59.505Z,22.54
2022-07-26T15:32:30.397Z,22.49
2022-07-26T15:34:57.517Z,22.41
2022-07-26T15:37:24.852Z,22.46
2022-07-26T15:39:52.228Z,22.55
2022-07-26T15:42:19.631Z,22.55
2022-07-26T15:44:50.041Z,22.44
2022-07-26T15:47:52.418Z,22.35
2022-07-26T15:50:09.897Z,22.44
2022-07-26T15:52:42.021Z,22.50
2022-07-26T15:55:11.622Z,22.52
2022-07-26T15:57:40.207Z,22.47
2022-07-26T16:00:11.579Z,22.45
2022-07-26T16:02:40.516Z,22.46
2022-07-26T16:05:09.048Z,22.50
2022-07-26T16:07:36.437Z,22.49
2022-07-26T16:10:04.715Z,22.46
2022-07-26T16:12:31.714Z,22.40
2022-07-26T16:14:58.726Z,22.42
2022-07-26T16:17:25.775Z,22.38
2022-07-26T16:19:53.434Z,22.45
2022-07-26T16:22:20.742Z,22.45
2022-07-26T16:24:47.992Z,22.41
2022-07-26T16:27:15.067Z,22.35
2022-07-26T16:29:42.100Z,22.30
2022-07-26T16:32:11.738Z,22.33
2022-07-26T16:34:39.063Z,22.43
2022-07-26T16:37:06.205Z,22.52
2022-07-26T16:39:33.316Z,22.45
2022-07-26T16:42:06.793Z,22.30
2022-07-26T16:44:36.276Z,22.22
2022-07-26T16:47:04.561Z,22.17
2022-07-26T16:49:31.856Z,22.13
2022-07-26T16:51:59.154Z,22.14
2022-07-26T16:54:26.612Z,22.16
2022-07-26T16:56:53.723Z,22.02
2022-07-26T16:59:20.988Z,22.06
2022-07-26T17:01:48.217Z,21.99
2022-07-26T17:04:16.578Z,21.93
2022-07-26T17:07:01.821Z,21.95
2022-07-26T17:09:31.712Z,21.87
2022-07-26T17:12:02.899Z,21.78
2022-07-26T17:14:33.171Z,21.81
2022-07-26T17:17:00.328Z,21.84
2022-07-26T17:19:27.785Z,21.88
2022-07-26T17:21:54.859Z,21.92
2022-07-26T17:24:21.893Z,21.95
2022-07-26T17:26:48.949Z,21.93
2022-07-26T17:29:16.072Z,21.92
2022-07-26T17:31:43.184Z,21.89
2022-07-26T17:34:10.738Z,21.80
2022-07-26T17:36:38.350Z,21.72
2022-07-26T17:39:05.623Z,21.61
2022-07-26T17:41:33.611Z,21.61
2022-07-26T17:44:02.982Z,21.65
2022-07-26T17:46:33.937Z,21.64
2022-07-26T17:49:01.396Z,21.60
2022-07-26T17:51:28.537Z,21.59
2022-07-26T17:53:55.597Z,21.57
2022-07-26T17:56:22.605Z,21.52
2022-07-26T17:58:49.633Z,21.44
2022-07-26T18:01:16.984Z,21.51
2022-07-26T18:03:44.302Z,21.53
2022-07-26T18:06:11.680Z,21.61
2022-07-26T18:08:38.863Z,21.55
2022-07-26T18:11:07.980Z,21.55
2022-07-26T18:13:35.556Z,21.49
2022-07-26T18:16:05.926Z,21.43
2022-07-26T18:18:33.591Z,21.42
2022-07-26T18:21:00.659Z,21.39
2022-07-26T18:23:27.689Z,21.35
2022-07-26T18:25:54.823Z,21.30
2022-07-26T18:28:21.817Z,21.28
2022-07-26T18:30:48.890Z,21.22
2022-07-26T18:33:16.513Z,21.21
2022-07-26T18:35:43.891Z,21.18
2022-07-26T18:38:11.042Z,21.16
2022-07-26T18:40:38.158Z,21.18
2022-07-26T18:43:05.250Z,21.21
2022-07-26T18:45:32.395Z,21.16
2022-07-26T18:47:59.822Z,21.13
2022-07-26T18:50:27.111Z,21.17
2022-07-26T18:52:59.314Z,21.05
2022-07-26T18:55:26.487Z,21.19
2022-07-26T18:57:53.644Z,21.22
2022-07-26T19:00:23.016Z,21.25
2022-07-26T19:02:52.078Z,21.20
2022-07-26T19:05:20.620Z,21.23
2022-07-26T19:07:47.694Z,21.20
2022-07-26T19:10:15.818Z,21.12
2022-07-26T19:12:45.280Z,21.02
2022-07-26T19:15:16.152Z,20.98
2022-07-26T19:17:44.823Z,20.93
2022-07-26T19:20:13.635Z,20.90
2022-07-26T19:22:41.648Z,20.80
2022-07-26T19:25:10.483Z,20.80
2022-07-26T19:27:38.252Z,20.76
2022-07-26T19:30:08.374Z,20.74
2022-07-26T19:32:38.921Z,20.69
2022-07-26T19:35:07.881Z,20.68
2022-07-26T19:37:35.495Z,20.62
2022-07-26T19:40:04.180Z,20.60
2022-07-26T19:42:32.452Z,20.53
2022-07-26T19:45:00.432Z,20.52
2022-07-26T19:47:29.695Z,20.46
2022-07-26T19:49:57.494Z,20.43
2022-07-26T19:52:25.027Z,20.40
2022-07-26T19:54:52.342Z,20.37
2022-07-26T19:57:19.540Z,20.35
2022-07-26T19:59:47.421Z,20.32
2022-07-26T20:02:14.932Z,20.26
2022-07-26T20:04:45.923Z,20.25
2022-07-26T20:07:19.518Z,20.23
2022-07-26T20:09:49.978Z,20.22
2022-07-26T20:12:19.287Z,20.20
2022-07-26T20:14:47.357Z,20.19
2022-07-26T20:17:14.839Z,20.18
2022-07-26T20:19:42.464Z,20.18
2022-07-26T20:22:09.787Z,20.18
2022-07-26T20:24:38.212Z,20.18
2022-07-26T20:27:07.947Z,20.16
2022-07-26T20:29:35.584Z,20.13
2022-07-26T20:32:03.222Z,20.10
2022-07-26T20:34:30.401Z,20.06
2022-07-26T20:36:57.534Z,20.03
2022-07-26T20:39:26.195Z,19.98
2022-07-26T20:41:53.851Z,19.97
2022-07-26T20:44:27.943Z,19.93
2022-07-26T20:46:55.750Z,19.88
2022-07-26T20:49:22.894Z,19.85
2022-07-26T20:51:50.030Z,19.80
2022-07-26T20:54:17.285Z,19.75
2022-07-26T20:56:44.344Z,19.72
2022-07-26T20:59:11.716Z,19.69
2022-07-26T21:01:39.029Z,19.68
2022-07-26T21:04:14.495Z,19.69
2022-07-26T21:06:41.982Z,19.67
2022-07-26T21:09:09.795Z,19.66
2022-07-26T21:11:38.863Z,19.63
2022-07-26T21:14:06.265Z,19.63
2022-07-26T21:16:33.356Z,19.63
2022-07-26T21:19:02.012Z,19.62
2022-07-26T21:21:29.022Z,19.60
2022-07-26T21:23:56.013Z,19.59
2022-07-26T21:26:23.102Z,19.59
2022-07-26T21:28:50.080Z,19.57
2022-07-26T21:31:17.241Z,19.53
2022-07-26T21:33:44.968Z,19.51
2022-07-26T21:36:12.063Z,19.47
2022-07-26T21:38:39.151Z,19.43
2022-07-26T21:41:06.165Z,19.40
2022-07-26T21:43:33.225Z,19.35
2022-07-26T21:46:00.804Z,19.33
2022-07-26T21:48:27.947Z,19.32
2022-07-26T21:50:54.946Z,19.27
2022-07-26T21:53:21.999Z,19.24
2022-07-26T21:55:48.961Z,19.25
2022-07-26T21:58:16.026Z,19.22
2022-07-26T22:00:43.673Z,19.25
2022-07-26T22:03:11.784Z,19.25
2022-07-26T22:05:38.943Z,19.25
2022-07-26T22:08:12.278Z,19.27
2022-07-26T22:10:44.747Z,19.27
2022-07-26T22:13:13.624Z,19.27
2022-07-26T22:15:41.095Z,19.28
2022-07-26T22:18:09.790Z,19.25
2022-07-26T22:20:37.288Z,19.25
2022-07-26T22:23:08.012Z,19.25
2022-07-26T22:25:38.175Z,19.23
2022-07-26T22:28:07.937Z,19.20
2022-07-26T22:30:36.133Z,19.17
2022-07-26T22:33:06.420Z,19.13
2022-07-26T22:35:36.485Z,19.12
2022-07-26T22:38:11.450Z,19.11
2022-07-26T22:40:40.307Z,19.10
2022-07-26T22:43:08.787Z,19.09
2022-07-26T22:45:37.317Z,19.09
2022-07-26T22:48:06.072Z,19.07
2022-07-26T22:50:33.437Z,19.08
2022-07-26T22:53:01.058Z,19.08
2022-07-26T22:55:29.047Z,19.08
2022-07-26T22:57:56.354Z,19.07
2022-07-26T23:00:24.497Z,19.06
2022-07-26T23:02:52.034Z,19.06
2022-07-26T23:05:20.206Z,19.06
2022-07-26T23:07:48.594Z,19.07
2022-07-26T23:10:17.405Z,19.06
2022-07-26T23:12:44.754Z,19.07
2022-07-26T23:15:12.885Z,19.09
2022-07-26T23:17:40.893Z,19.10
2022-07-26T23:20:10.082Z,19.12
2022-07-26T23:22:38.375Z,19.10
2022-07-26T23:25:06.745Z,19.11
2022-07-26T23:27:36.587Z,19.11
2022-07-26T23:30:04.269Z,18.80
2022-07-26T23:32:33.820Z,19.12
2022-07-26T23:35:02.368Z,19.12
2022-07-26T23:37:29.905Z,19.11
2022-07-26T23:39:56.889Z,19.12
2022-07-26T23:42:23.870Z,19.12
2022-07-26T23:44:50.884Z,19.14
2022-07-26T23:47:17.936Z,19.12
2022-07-26T23:49:44.980Z,19.13
2022-07-26T23:52:11.954Z,19.15
2022-07-26T23:54:39.047Z,19.16
2022-07-26T23:57:06.158Z,19.14
2022-07-26T23:59:33.170Z,19.14
